Latest Weather Observations for Gold Coast Seaway

IDQ60901

Issued at 10:01 pm EST Tuesday 6 December 2016 (issued every 10 minutes, with the page automatically refreshed every 10 minutes)

About weather observations | Map of Brisbane area stations | Latest observations for Brisbane area | Other Formats
Station Details ID: 040764 Name: GOLD COAST SEAWAY Lat: -27.94 Lon: 153.43 Height: 2.98 m
Data from the previous 72 hours. | See also: Recent months at Gold Coast Seaway
Date/Time
EST
Temp
°C
App
Temp
°C
Dew
Point
°C
Rel
Hum
%
Delta-T
°C
Wind Press
QNH
hPa
Press
MSL
hPa
Rain since
9am
mm
Dir  Spd
km/h
Gust
km/h
Spd
kts
Gust
kts
06/10:00pm 22.1 25.4 21.9 99 0.1 NW 7 9 4 5 1013.5 1013.5 -
06/09:30pm 22.2 24.8 22.0 99 0.1 N 11 15 6 8 1012.4 1012.4 0.0
06/09:00pm 22.0 23.8 21.8 99 0.1 N 15 20 8 11 1012.2 1012.2 0.0
06/08:30pm 21.9 22.7 21.7 99 0.1 N 20 24 11 13 1012.0 1012.0 0.0
06/08:00pm 22.0 23.0 21.8 99 0.1 N 19 24 10 13 1011.9 1011.9 0.0
06/07:30pm 22.1 22.2 21.9 99 0.1 N 24 28 13 15 1011.6 1011.6 0.0
06/07:00pm 22.3 21.4 22.1 99 0.1 N 30 35 16 19 1011.3 1011.3 0.0
06/06:30pm 22.4 21.5 22.2 99 0.1 N 30 35 16 19 1010.4 1010.4 0.0
06/06:00pm 22.3 22.1 20.6 90 1.1 N 22 26 12 14 1010.4 1010.4 0.0
06/05:30pm 22.4 21.5 19.8 85 1.7 N 24 28 13 15 1009.8 1009.8 0.0
06/05:00pm 22.9 22.5 19.3 80 2.3 N 20 24 11 13 1009.2 1009.2 0.0
06/04:30pm 24.2 23.9 19.1 73 3.3 N 19 30 10 16 1008.6 1008.6 0.0
06/04:00pm 27.3 25.8 19.4 62 5.1 N 26 32 14 17 1008.2 1008.2 0.0
06/03:30pm 30.7 30.5 22.8 62 5.4 N 28 37 15 20 1008.2 1008.2 0.0
06/03:00pm 30.0 30.3 22.2 63 5.3 N 24 30 13 16 1008.6 1008.6 0.0
06/02:30pm 28.2 27.0 20.0 61 5.4 N 26 37 14 20 1009.1 1009.1 0.0
06/02:00pm 30.7 30.1 22.0 59 5.9 N 28 32 15 17 1009.4 1009.4 0.0
06/01:30pm 31.7 31.7 20.9 52 7.2 NNW 22 39 12 21 1010.1 1010.1 0.0
06/01:00pm 30.3 30.2 21.4 59 6.0 NNW 24 32 13 17 1010.7 1010.7 0.0
06/12:30pm 29.3 28.2 21.0 61 5.5 NW 28 41 15 22 1011.4 1011.4 0.0
06/12:00pm 29.1 28.1 21.3 62 5.2 NNW 28 35 15 19 1012.2 1012.2 0.0
06/11:30am 27.8 25.1 19.6 61 5.3 NW 33 44 18 24 1013.0 1013.0 0.0
06/11:00am 27.2 24.5 20.5 67 4.4 NW 35 46 19 25 1013.8 1013.8 0.0
06/10:30am 25.9 23.3 20.0 70 3.8 NW 33 46 18 25 1014.4 1014.4 0.0
06/10:00am 25.5 24.0 20.3 73 3.4 NNW 28 35 15 19 1015.1 1015.1 0.0
06/09:30am 24.5 24.1 20.2 77 2.8 NW 22 32 12 17 1015.9 1015.9 0.0
06/09:00am 23.8 24.5 20.5 82 2.1 NW 17 26 9 14 1016.4 1016.4 13.8
06/08:30am 23.4 24.2 21.8 91 1.1 WNW 20 26 11 14 1017.2 1017.2 13.8
06/08:00am 22.5 23.6 22.3 99 0.1 NNW 20 30 11 16 1017.1 1017.1 13.8
06/07:30am 21.6 21.2 21.6 100 0.0 N 26 32 14 17 1016.7 1016.7 13.8
06/07:00am 21.2 21.2 21.0 99 0.1 N 22 32 12 17 1016.3 1016.3 13.8
06/06:30am 20.0 20.5 19.2 95 0.5 NNE 15 28 8 15 1016.9 1016.9 13.4
06/06:00am 20.5 17.1 19.0 91 0.9 NE 35 41 19 22 1017.1 1017.1 12.6
06/05:30am 19.9 19.1 19.2 96 0.4 ENE 22 30 12 16 1017.8 1017.8 12.6
06/05:00am 21.7 22.5 21.7 100 0.0 S 20 28 11 15 1019.5 1019.5 7.4
06/04:50am 21.4 22.0 21.4 100 0.0 SE 20 30 11 16 1019.5 1019.5 6.2
06/04:30am 21.3 21.7 19.9 92 0.9 E 17 28 9 15 1017.3 1017.3 0.0
06/04:24am 21.5 22.0 20.1 92 0.9 E 17 20 9 11 1017.6 1017.6 0.0
06/04:00am 21.5 20.5 21.3 99 0.1 ENE 28 32 15 17 1015.6 1015.6 0.0
06/03:30am 21.3 21.4 21.1 99 0.1 ENE 22 28 12 15 1015.1 1015.1 0.0
06/03:00am 21.4 21.3 21.4 100 0.0 ENE 24 28 13 15 1015.0 1015.0 0.0
06/02:30am 21.2 20.5 21.0 99 0.1 ENE 26 30 14 16 1014.4 1014.4 0.0
06/02:00am 21.3 21.0 21.1 99 0.1 ENE 24 30 13 16 1014.1 1014.1 0.0
06/01:30am 21.2 20.8 21.0 99 0.1 ENE 24 28 13 15 1014.2 1014.2 0.0
06/01:00am 21.2 21.6 21.0 99 0.1 ENE 20 24 11 13 1014.4 1014.4 0.0
06/12:30am 21.2 21.6 21.0 99 0.1 ENE 20 24 11 13 1014.0 1014.0 0.0
06/12:00am 21.4 22.5 21.2 99 0.1 ENE 17 22 9 12 1013.8 1013.8 0.0
 
Date/Time
EST
Temp
°C
App
Temp
°C
Dew
Point
°C
Rel
Hum
%
Delta-T
°C
Wind Press
QNH
hPa
Press
MSL
hPa
Rain since
9am
mm
Dir  Spd
km/h
Gust
km/h
Spd
kts
Gust
kts
05/11:30pm 21.6 24.3 21.4 99 0.1 NNE 9 13 5 7 1013.7 1013.7 0.0
05/11:00pm 21.7 23.3 21.5 99 0.1 N 15 17 8 9 1013.3 1013.3 0.0
05/10:30pm 21.7 22.9 21.5 99 0.1 N 17 19 9 10 1012.8 1012.8 0.0
05/10:00pm 21.8 22.1 21.6 99 0.1 N 22 28 12 15 1012.6 1012.6 0.0
05/09:30pm 21.9 24.0 21.7 99 0.1 N 13 19 7 10 1013.0 1013.0 0.0
05/09:00pm 22.0 24.2 21.8 99 0.1 N 13 15 7 8 1012.6 1012.6 0.0
05/08:30pm 22.1 24.3 21.9 99 0.1 N 13 17 7 9 1012.5 1012.5 0.0
05/08:00pm 22.1 23.9 21.9 99 0.1 N 15 19 8 10 1012.1 1012.1 0.0
05/07:30pm 22.2 23.6 21.9 98 0.2 N 17 19 9 10 1011.8 1011.8 0.0
05/07:00pm 22.2 23.0 21.7 97 0.3 N 20 26 11 14 1011.7 1011.7 0.0
05/06:30pm 22.2 22.7 21.2 94 0.7 N 20 26 11 14 1011.6 1011.6 0.0
05/06:00pm 22.6 22.4 21.2 92 0.9 N 24 28 13 15 1011.4 1011.4 0.0
05/05:30pm 22.5 21.7 20.8 90 1.1 N 26 30 14 16 1011.2 1011.2 0.0
05/05:00pm 22.8 21.7 21.1 90 1.1 N 28 33 15 18 1011.2 1011.2 0.0
05/04:30pm 23.1 22.0 21.0 88 1.4 N 28 35 15 19 1011.2 1011.2 0.0
05/04:00pm 23.4 21.6 21.1 87 1.5 N 32 37 17 20 1011.0 1011.0 0.0
05/03:30pm 23.7 21.6 21.0 85 1.8 N 33 39 18 21 1011.1 1011.1 0.0
05/03:00pm 24.1 21.7 21.0 83 2.0 N 35 41 19 22 1011.1 1011.1 0.0
05/02:30pm 23.8 21.3 20.9 84 1.9 N 35 41 19 22 1011.2 1011.2 0.0
05/02:00pm 25.3 22.4 20.8 76 3.0 N 37 44 20 24 1011.5 1011.5 0.0
05/01:30pm 25.6 22.4 21.1 76 3.0 NNE 39 44 21 24 1011.8 1011.8 0.0
05/01:00pm 25.5 22.5 20.7 75 3.1 NNE 37 41 20 22 1012.4 1012.4 0.0
05/12:30pm 26.0 22.7 20.8 73 3.4 NNE 39 43 21 23 1012.6 1012.6 0.0
05/12:00pm 26.6 24.0 20.7 70 3.9 NNE 35 41 19 22 1012.9 1012.9 0.0
05/11:30am 26.9 25.5 21.9 74 3.3 NNE 32 37 17 20 1013.4 1013.4 0.0
05/11:00am 29.5 28.8 22.5 66 4.8 N 30 37 16 20 1013.7 1013.7 0.0
05/10:30am 28.6 27.2 21.9 67 4.5 N 32 39 17 21 1014.1 1014.1 0.0
05/10:00am 28.9 28.3 22.6 69 4.3 N 30 37 16 20 1014.3 1014.3 0.0
05/09:30am 28.3 27.2 22.5 71 3.9 N 32 39 17 21 1014.4 1014.4 0.0
05/09:00am 27.8 27.3 22.1 71 3.8 N 28 37 15 20 1014.7 1014.7 0.0
05/08:30am 27.4 27.5 22.6 75 3.2 N 26 35 14 19 1014.9 1014.9 0.0
05/08:00am 27.1 26.6 22.9 78 2.9 N 30 35 16 19 1015.1 1015.1 0.0
05/07:30am 25.4 26.8 23.6 90 1.2 N 22 32 12 17 1015.3 1015.3 0.0
05/07:00am 22.4 24.0 22.2 99 0.1 N 17 22 9 12 1015.5 1015.5 0.0
05/06:30am 22.2 24.6 22.2 100 0.0 N 13 17 7 9 1015.5 1015.5 0.0
05/06:00am 21.6 23.3 21.6 100 0.0 N 15 19 8 10 1015.3 1015.3 0.0
05/05:30am 21.3 22.4 21.3 100 0.0 N 17 19 9 10 1015.0 1015.0 0.0
05/05:00am 21.1 22.5 21.1 100 0.0 N 15 17 8 9 1014.7 1014.7 0.0
05/04:30am 21.1 22.9 21.1 100 0.0 N 13 17 7 9 1014.4 1014.4 0.0
05/04:00am 21.2 22.7 21.2 100 0.0 N 15 17 8 9 1014.3 1014.3 0.0
05/03:30am 21.3 23.2 21.3 100 0.0 N 13 15 7 8 1014.1 1014.1 0.0
05/03:00am 21.3 24.0 21.3 100 0.0 N 9 11 5 6 1014.2 1014.2 0.0
05/02:30am 21.7 24.2 21.7 100 0.0 N 11 13 6 7 1013.9 1013.9 0.0
05/02:00am 22.0 24.6 22.0 100 0.0 N 11 15 6 8 1014.0 1014.0 0.0
05/01:30am 22.4 25.6 22.4 100 0.0 N 9 11 5 6 1014.4 1014.4 0.0
05/01:00am 22.3 24.7 22.3 100 0.0 NNE 13 15 7 8 1014.6 1014.6 0.0
05/12:30am 22.2 25.3 22.2 100 0.0 N 9 11 5 6 1014.9 1014.9 0.0
05/12:00am 22.1 24.8 22.1 100 0.0 N 11 15 6 8 1015.1 1015.1 0.0
 
Date/Time
EST
Temp
°C
App
Temp
°C
Dew
Point
°C
Rel
Hum
%
Delta-T
°C
Wind Press
QNH
hPa
Press
MSL
hPa
Rain since
9am
mm
Dir  Spd
km/h
Gust
km/h
Spd
kts
Gust
kts
04/11:30pm 22.3 25.5 22.3 100 0.0 N 9 11 5 6 1015.4 1015.4 0.0
04/11:00pm 21.9 25.1 21.7 99 0.1 N 7 9 4 5 1015.3 1015.3 0.0
04/10:30pm 21.9 25.1 21.7 99 0.1 N 7 7 4 4 1015.5 1015.5 0.0
04/10:00pm 22.1 25.4 21.9 99 0.1 N 7 9 4 5 1015.5 1015.5 0.0
04/09:30pm 22.4 25.5 22.2 99 0.1 N 9 11 5 6 1015.4 1015.4 0.0
04/09:00pm 22.3 25.0 22.1 99 0.1 N 11 11 6 6 1015.2 1015.2 0.0
04/08:30pm 22.4 25.1 22.2 99 0.1 N 11 13 6 7 1014.9 1014.9 0.0
04/08:00pm 22.4 24.8 22.2 99 0.1 N 13 15 7 8 1014.4 1014.4 0.0
04/07:30pm 22.5 24.5 22.3 99 0.1 N 15 17 8 9 1014.2 1014.2 0.0
04/07:00pm 22.7 24.1 22.5 99 0.1 N 19 20 10 11 1014.1 1014.1 0.0
04/06:30pm 23.0 24.2 22.5 97 0.3 N 20 26 11 14 1013.9 1013.9 0.0
04/06:00pm 23.5 24.0 21.9 91 1.1 NNE 22 28 12 15 1013.6 1013.6 0.0
04/05:30pm 24.3 24.0 21.8 86 1.7 NNE 26 30 14 16 1013.5 1013.5 0.0
04/05:00pm 25.0 25.0 21.7 82 2.2 NNE 24 28 13 15 1013.2 1013.2 0.0
04/04:30pm 25.7 26.0 22.2 81 2.3 NNE 24 28 13 15 1013.2 1013.2 0.0
04/04:00pm 25.9 25.7 22.0 79 2.6 NNE 26 30 14 16 1013.2 1013.2 0.0
04/03:30pm 26.8 26.4 22.4 77 3.0 NNE 28 32 15 17 1013.2 1013.2 0.0
04/03:00pm 26.8 26.4 22.4 77 3.0 NNE 28 32 15 17 1013.1 1013.1 0.0
04/02:30pm 27.1 26.3 22.3 75 3.2 NNE 30 33 16 18 1013.5 1013.5 0.0
04/02:00pm 27.3 26.2 22.5 75 3.2 NNE 32 35 17 19 1013.5 1013.5 0.0
04/01:30pm 26.8 26.5 22.6 78 2.8 NE 28 32 15 17 1013.7 1013.7 0.0
04/01:00pm 27.1 25.9 22.3 75 3.2 NNE 32 33 17 18 1013.8 1013.8 0.0
04/12:30pm 27.4 26.6 22.4 74 3.4 NNE 30 33 16 18 1014.2 1014.2 0.0
04/12:00pm 27.5 26.8 21.8 71 3.8 NNE 28 33 15 18 1014.6 1014.6 0.0
04/11:30am 26.8 26.1 21.8 74 3.3 NNE 28 30 15 16 1014.9 1014.9 0.0
04/11:00am 27.2 27.3 22.6 76 3.1 NNE 26 28 14 15 1015.2 1015.2 0.0
04/10:30am 26.9 27.3 22.5 77 3.0 NNE 24 28 13 15 1015.4 1015.4 0.0
04/10:00am 27.2 29.4 23.2 79 2.7 NE 17 20 9 11 1016.0 1016.0 0.0
04/09:30am 27.0 28.6 22.8 78 2.8 NNE 19 19 10 10 1015.8 1015.8 0.0
04/09:00am 26.6 28.6 22.9 80 2.5 NNE 17 19 9 10 1015.6 1015.6 1.6
04/08:30am 25.9 28.5 22.6 82 2.2 N 13 17 7 9 1015.6 1015.6 1.6
04/08:00am 25.6 28.6 22.7 84 2.0 NNE 11 17 6 9 1015.8 1015.8 1.6
04/07:30am 24.6 28.1 22.1 86 1.7 SE 7 9 4 5 1015.9 1015.9 1.6
04/07:00am 23.7 28.3 21.8 89 1.3 CALM 0 0 0 0 1015.8 1015.8 1.6
04/06:30am 22.6 26.1 21.8 95 0.5 SE 6 7 3 4 1015.7 1015.7 1.6
04/06:00am 22.0 24.9 21.8 99 0.1 SE 9 11 5 6 1015.6 1015.6 1.6
04/05:30am 20.9 23.0 20.9 100 0.0 SE 11 13 6 7 1015.3 1015.3 1.6
04/05:00am 20.3 21.7 20.3 100 0.0 E 13 15 7 8 1015.1 1015.1 1.6
04/04:30am 20.1 21.8 20.1 100 0.0 ESE 11 13 6 7 1014.9 1014.9 1.6
04/04:00am 19.9 20.2 19.7 99 0.1 SE 17 19 9 10 1014.5 1014.5 1.6
04/03:30am 19.9 19.9 19.7 99 0.1 SSE 19 22 10 12 1013.9 1013.9 1.6
04/03:00am 20.2 20.3 19.2 94 0.6 SSE 17 22 9 12 1013.7 1013.7 1.6
04/02:30am 21.2 23.0 19.5 90 1.1 SSW 9 13 5 7 1013.7 1013.7 1.6
04/02:00am 22.2 23.3 19.6 85 1.7 W 13 13 7 7 1013.5 1013.5 1.6
04/01:30am 22.8 23.1 19.6 82 2.0 W 17 22 9 12 1013.6 1013.6 1.6
04/01:00am 23.1 23.1 20.2 84 1.9 W 20 26 11 14 1013.8 1013.8 1.6
04/12:30am 23.1 21.3 20.4 85 1.7 NW 30 37 16 20 1013.8 1013.8 1.6
04/12:00am 22.5 24.1 22.2 98 0.2 WNW 17 24 9 13 1014.6 1014.6 1.6
 
Date/Time
EST
Temp
°C
App
Temp
°C
Dew
Point
°C
Rel
Hum
%
Delta-T
°C
Wind Press
QNH
hPa
Press
MSL
hPa
Rain since
9am
mm
Dir  Spd
km/h
Gust
km/h
Spd
kts
Gust
kts
03/11:30pm 22.6 22.6 22.4 99 0.1 WNW 26 30 14 16 1014.8 1014.8 1.6
03/11:00pm 22.5 23.7 22.5 100 0.0 NW 20 26 11 14 1014.9 1014.9 1.6
03/10:30pm 22.3 24.7 22.3 100 0.0 NW 13 15 7 8 1015.7 1015.7 1.6

Latest Capital City Observations: Canberra | Sydney | Melbourne | Brisbane | Adelaide | Perth | Hobart | Darwin

Other Formats:

Comma delimited format used in spreadsheet applications
http://www.bom.gov.au/fwo/IDQ60901/IDQ60901.94580.axf

JavaScript Object Notation format (JSON) in row-major order
http://www.bom.gov.au/fwo/IDQ60901/IDQ60901.94580.json